sensor_id;sensor_type;location;lat;lon;timestamp;temperature;humidity
8338;DHT22;4206;48.634;9.516;2023-12-07T00:02:15;1.20;99.90
8338;DHT22;4206;48.634;9.516;2023-12-07T00:04:42;1.10;99.90
8338;DHT22;4206;48.634;9.516;2023-12-07T00:07:09;1.10;99.90
8338;DHT22;4206;48.634;9.516;2023-12-07T00:09:36;1.10;99.90
8338;DHT22;4206;48.634;9.516;2023-12-07T00:12:03;1.10;99.90
8338;DHT22;4206;48.634;9.516;2023-12-07T00:14:30;1.10;99.90
8338;DHT22;4206;48.634;9.516;2023-12-07T00:16:57;1.00;99.90
8338;DHT22;4206;48.634;9.516;2023-12-07T00:19:24;1.10;99.90
8338;DHT22;4206;48.634;9.516;2023-12-07T00:21:51;1.20;99.90
8338;DHT22;4206;48.634;9.516;2023-12-07T00:24:18;1.20;99.90
8338;DHT22;4206;48.634;9.516;2023-12-07T00:26:45;1.20;99.90
8338;DHT22;4206;48.634;9.516;2023-12-07T00:29:12;1.10;99.90
8338;DHT22;4206;48.634;9.516;2023-12-07T00:31:39;1.10;99.90
8338;DHT22;4206;48.634;9.516;2023-12-07T00:34:05;1.10;99.90
8338;DHT22;4206;48.634;9.516;2023-12-07T00:36:32;1.10;99.90
8338;DHT22;4206;48.634;9.516;2023-12-07T00:39:00;1.10;99.90
8338;DHT22;4206;48.634;9.516;2023-12-07T00:41:27;1.00;99.90
8338;DHT22;4206;48.634;9.516;2023-12-07T00:43:54;1.00;99.90
8338;DHT22;4206;48.634;9.516;2023-12-07T00:46:21;1.00;99.90
8338;DHT22;4206;48.634;9.516;2023-12-07T00:48:48;1.00;99.90
8338;DHT22;4206;48.634;9.516;2023-12-07T00:51:15;1.00;99.90
8338;DHT22;4206;48.634;9.516;2023-12-07T00:53:42;1.10;99.90
8338;DHT22;4206;48.634;9.516;2023-12-07T00:56:09;1.10;99.90
8338;DHT22;4206;48.634;9.516;2023-12-07T00:58:36;1.10;99.90
8338;DHT22;4206;48.634;9.516;2023-12-07T01:01:05;1.00;99.90
8338;DHT22;4206;48.634;9.516;2023-12-07T01:03:33;1.00;99.90
8338;DHT22;4206;48.634;9.516;2023-12-07T01:06:00;1.00;99.90
8338;DHT22;4206;48.634;9.516;2023-12-07T01:08:27;1.00;99.90
8338;DHT22;4206;48.634;9.516;2023-12-07T01:10:53;1.00;99.90
8338;DHT22;4206;48.634;9.516;2023-12-07T01:13:20;1.00;99.90
8338;DHT22;4206;48.634;9.516;2023-12-07T01:15:47;1.00;99.90
8338;DHT22;4206;48.634;9.516;2023-12-07T01:18:14;1.00;99.90
8338;DHT22;4206;48.634;9.516;2023-12-07T01:20:41;1.00;99.90
8338;DHT22;4206;48.634;9.516;2023-12-07T01:23:08;1.00;99.90
8338;DHT22;4206;48.634;9.516;2023-12-07T01:25:37;1.00;99.90
8338;DHT22;4206;48.634;9.516;2023-12-07T01:28:04;1.00;99.90
8338;DHT22;4206;48.634;9.516;2023-12-07T01:30:31;1.00;99.90
8338;DHT22;4206;48.634;9.516;2023-12-07T01:32:58;1.00;99.90
8338;DHT22;4206;48.634;9.516;2023-12-07T01:35:26;0.90;99.90
8338;DHT22;4206;48.634;9.516;2023-12-07T01:37:53;0.90;99.90
8338;DHT22;4206;48.634;9.516;2023-12-07T01:40:20;0.90;99.90
8338;DHT22;4206;48.634;9.516;2023-12-07T01:42:52;0.90;99.90
8338;DHT22;4206;48.634;9.516;2023-12-07T01:45:19;0.80;99.90
8338;DHT22;4206;48.634;9.516;2023-12-07T01:47:50;0.80;99.90
8338;DHT22;4206;48.634;9.516;2023-12-07T01:50:18;0.80;99.90
8338;DHT22;4206;48.634;9.516;2023-12-07T01:52:54;0.80;99.90
8338;DHT22;4206;48.634;9.516;2023-12-07T01:55:22;0.80;99.90
8338;DHT22;4206;48.634;9.516;2023-12-07T01:57:50;0.80;99.90
8338;DHT22;4206;48.634;9.516;2023-12-07T02:00:17;0.80;99.90
8338;DHT22;4206;48.634;9.516;2023-12-07T02:02:46;0.90;99.90
8338;DHT22;4206;48.634;9.516;2023-12-07T02:05:14;0.80;99.90
8338;DHT22;4206;48.634;9.516;2023-12-07T02:07:42;0.80;99.90
8338;DHT22;4206;48.634;9.516;2023-12-07T02:10:10;0.80;99.90
8338;DHT22;4206;48.634;9.516;2023-12-07T02:12:38;0.80;99.90
8338;DHT22;4206;48.634;9.516;2023-12-07T02:15:05;0.80;99.90
8338;DHT22;4206;48.634;9.516;2023-12-07T02:23:07;0.80;99.90
8338;DHT22;4206;48.634;9.516;2023-12-07T02:28:19;0.80;99.90
8338;DHT22;4206;48.634;9.516;2023-12-07T02:30:47;0.80;99.90
8338;DHT22;4206;48.634;9.516;2023-12-07T02:33:13;0.80;99.90
8338;DHT22;4206;48.634;9.516;2023-12-07T02:35:42;0.70;99.90
8338;DHT22;4206;48.634;9.516;2023-12-07T02:38:09;0.70;99.90
8338;DHT22;4206;48.634;9.516;2023-12-07T02:40:37;0.70;99.90
8338;DHT22;4206;48.634;9.516;2023-12-07T02:43:05;0.60;99.90
8338;DHT22;4206;48.634;9.516;2023-12-07T02:45:34;0.50;99.90
8338;DHT22;4206;48.634;9.516;2023-12-07T02:48:01;0.40;99.90
8338;DHT22;4206;48.634;9.516;2023-12-07T02:50:28;0.30;99.90
8338;DHT22;4206;48.634;9.516;2023-12-07T02:52:55;0.20;99.90
8338;DHT22;4206;48.634;9.516;2023-12-07T02:55:23;0.20;99.90
8338;DHT22;4206;48.634;9.516;2023-12-07T02:57:50;0.10;99.90
8338;DHT22;4206;48.634;9.516;2023-12-07T03:00:18;0.10;99.90
8338;DHT22;4206;48.634;9.516;2023-12-07T03:02:45;0.10;99.90
8338;DHT22;4206;48.634;9.516;2023-12-07T03:05:14;0.10;99.90
8338;DHT22;4206;48.634;9.516;2023-12-07T03:07:41;0.10;99.90
8338;DHT22;4206;48.634;9.516;2023-12-07T03:10:08;0.20;99.90
8338;DHT22;4206;48.634;9.516;2023-12-07T03:12:35;0.20;99.90
8338;DHT22;4206;48.634;9.516;2023-12-07T03:15:02;0.20;99.90
8338;DHT22;4206;48.634;9.516;2023-12-07T03:17:29;0.20;99.90
8338;DHT22;4206;48.634;9.516;2023-12-07T03:19:56;0.20;99.90
8338;DHT22;4206;48.634;9.516;2023-12-07T03:22:23;0.30;99.90
8338;DHT22;4206;48.634;9.516;2023-12-07T03:24:52;0.30;99.90
8338;DHT22;4206;48.634;9.516;2023-12-07T03:27:19;0.30;99.90
8338;DHT22;4206;48.634;9.516;2023-12-07T03:29:46;0.30;99.90
8338;DHT22;4206;48.634;9.516;2023-12-07T03:32:13;0.30;99.90
8338;DHT22;4206;48.634;9.516;2023-12-07T03:34:40;0.20;99.90
8338;DHT22;4206;48.634;9.516;2023-12-07T03:37:07;0.20;99.90
8338;DHT22;4206;48.634;9.516;2023-12-07T03:39:34;0.20;99.90
8338;DHT22;4206;48.634;9.516;2023-12-07T03:42:01;0.10;99.90
8338;DHT22;4206;48.634;9.516;2023-12-07T03:44:28;0.10;99.90
8338;DHT22;4206;48.634;9.516;2023-12-07T03:46:55;0.00;99.90
8338;DHT22;4206;48.634;9.516;2023-12-07T03:49:22;0.00;99.90
8338;DHT22;4206;48.634;9.516;2023-12-07T03:51:49;-0.10;99.90
8338;DHT22;4206;48.634;9.516;2023-12-07T03:54:16;-0.10;99.90
8338;DHT22;4206;48.634;9.516;2023-12-07T03:56:43;-0.10;99.90
8338;DHT22;4206;48.634;9.516;2023-12-07T03:59:09;-0.20;99.90
8338;DHT22;4206;48.634;9.516;2023-12-07T04:01:36;-0.20;99.90
8338;DHT22;4206;48.634;9.516;2023-12-07T04:04:04;-0.20;99.90
8338;DHT22;4206;48.634;9.516;2023-12-07T04:06:32;-0.20;99.90
8338;DHT22;4206;48.634;9.516;2023-12-07T04:08:59;-0.20;99.90
8338;DHT22;4206;48.634;9.516;2023-12-07T04:11:26;-0.30;99.90
8338;DHT22;4206;48.634;9.516;2023-12-07T04:13:52;-0.30;99.90
8338;DHT22;4206;48.634;9.516;2023-12-07T04:16:20;-0.30;99.90
8338;DHT22;4206;48.634;9.516;2023-12-07T04:18:47;-0.40;99.90
8338;DHT22;4206;48.634;9.516;2023-12-07T04:23:49;-0.50;99.90
8338;DHT22;4206;48.634;9.516;2023-12-07T04:26:16;-0.50;99.90
8338;DHT22;4206;48.634;9.516;2023-12-07T04:28:43;-0.50;99.90
8338;DHT22;4206;48.634;9.516;2023-12-07T04:33:45;-0.70;99.90
8338;DHT22;4206;48.634;9.516;2023-12-07T04:36:12;-0.70;99.90
8338;DHT22;4206;48.634;9.516;2023-12-07T04:38:39;-0.60;99.90
8338;DHT22;4206;48.634;9.516;2023-12-07T04:41:07;-0.80;99.90
8338;DHT22;4206;48.634;9.516;2023-12-07T04:43:34;-0.90;99.90
8338;DHT22;4206;48.634;9.516;2023-12-07T04:46:00;-0.90;99.90
8338;DHT22;4206;48.634;9.516;2023-12-07T04:48:27;-1.00;99.90
8338;DHT22;4206;48.634;9.516;2023-12-07T04:50:54;-1.00;99.90
8338;DHT22;4206;48.634;9.516;2023-12-07T04:53:21;-1.00;99.90
8338;DHT22;4206;48.634;9.516;2023-12-07T04:55:48;-1.10;99.90
8338;DHT22;4206;48.634;9.516;2023-12-07T04:58:16;-1.20;99.90
8338;DHT22;4206;48.634;9.516;2023-12-07T05:00:46;-1.20;99.90
8338;DHT22;4206;48.634;9.516;2023-12-07T05:03:13;-1.30;99.90
8338;DHT22;4206;48.634;9.516;2023-12-07T05:05:40;-1.40;99.90
8338;DHT22;4206;48.634;9.516;2023-12-07T05:08:08;-1.40;99.90
8338;DHT22;4206;48.634;9.516;2023-12-07T05:10:35;-1.50;99.90
8338;DHT22;4206;48.634;9.516;2023-12-07T05:13:02;-1.60;99.90
8338;DHT22;4206;48.634;9.516;2023-12-07T05:15:28;-1.60;99.90
8338;DHT22;4206;48.634;9.516;2023-12-07T05:17:55;-1.50;99.90
8338;DHT22;4206;48.634;9.516;2023-12-07T05:23:08;-1.40;99.90
8338;DHT22;4206;48.634;9.516;2023-12-07T05:25:35;-1.30;99.90
8338;DHT22;4206;48.634;9.516;2023-12-07T05:28:02;-1.30;99.90
8338;DHT22;4206;48.634;9.516;2023-12-07T05:33:05;-1.40;99.90
8338;DHT22;4206;48.634;9.516;2023-12-07T05:35:32;-1.40;99.90
8338;DHT22;4206;48.634;9.516;2023-12-07T05:38:00;-1.30;99.90
8338;DHT22;4206;48.634;9.516;2023-12-07T05:40:27;-1.40;99.90
8338;DHT22;4206;48.634;9.516;2023-12-07T05:42:54;-1.50;99.90
8338;DHT22;4206;48.634;9.516;2023-12-07T05:45:21;-1.60;99.90
8338;DHT22;4206;48.634;9.516;2023-12-07T05:47:48;-1.60;99.90
8338;DHT22;4206;48.634;9.516;2023-12-07T05:53:00;-1.60;99.90
8338;DHT22;4206;48.634;9.516;2023-12-07T05:55:27;-1.70;99.90
8338;DHT22;4206;48.634;9.516;2023-12-07T05:57:54;-1.70;99.90
8338;DHT22;4206;48.634;9.516;2023-12-07T06:03:06;-1.80;99.90
8338;DHT22;4206;48.634;9.516;2023-12-07T06:05:33;-1.80;99.90
8338;DHT22;4206;48.634;9.516;2023-12-07T06:08:00;-1.90;99.90
8338;DHT22;4206;48.634;9.516;2023-12-07T06:10:27;-1.90;99.90
8338;DHT22;4206;48.634;9.516;2023-12-07T06:12:54;-1.90;99.90
8338;DHT22;4206;48.634;9.516;2023-12-07T06:15:22;-1.90;99.90
8338;DHT22;4206;48.634;9.516;2023-12-07T06:17:49;-1.80;99.90
8338;DHT22;4206;48.634;9.516;2023-12-07T06:20:16;-1.80;99.90
8338;DHT22;4206;48.634;9.516;2023-12-07T06:22:43;-1.80;99.90
8338;DHT22;4206;48.634;9.516;2023-12-07T06:25:10;-1.90;99.90
8338;DHT22;4206;48.634;9.516;2023-12-07T06:27:39;-1.80;99.90
8338;DHT22;4206;48.634;9.516;2023-12-07T06:30:06;-1.90;99.90
8338;DHT22;4206;48.634;9.516;2023-12-07T06:32:33;-1.90;99.90
8338;DHT22;4206;48.634;9.516;2023-12-07T06:37:54;-2.00;99.90
8338;DHT22;4206;48.634;9.516;2023-12-07T06:40:21;-2.00;99.90
8338;DHT22;4206;48.634;9.516;2023-12-07T06:42:48;-2.00;99.90
8338;DHT22;4206;48.634;9.516;2023-12-07T06:45:15;-2.10;99.90
8338;DHT22;4206;48.634;9.516;2023-12-07T06:47:43;-2.20;99.90
8338;DHT22;4206;48.634;9.516;2023-12-07T06:50:10;-2.20;99.90
8338;DHT22;4206;48.634;9.516;2023-12-07T06:52:37;-2.20;99.90
8338;DHT22;4206;48.634;9.516;2023-12-07T06:55:05;-2.10;99.90
8338;DHT22;4206;48.634;9.516;2023-12-07T06:57:33;-2.20;99.90
8338;DHT22;4206;48.634;9.516;2023-12-07T07:05:38;-2.30;99.90
8338;DHT22;4206;48.634;9.516;2023-12-07T07:08:06;-2.30;99.90
8338;DHT22;4206;48.634;9.516;2023-12-07T07:10:35;-2.30;99.90
8338;DHT22;4206;48.634;9.516;2023-12-07T07:13:03;-2.30;99.90
8338;DHT22;4206;48.634;9.516;2023-12-07T07:15:33;-2.30;99.90
8338;DHT22;4206;48.634;9.516;2023-12-07T07:18:01;-2.10;99.90
8338;DHT22;4206;48.634;9.516;2023-12-07T07:20:29;-1.80;99.90
8338;DHT22;4206;48.634;9.516;2023-12-07T07:22:59;-1.80;99.90
8338;DHT22;4206;48.634;9.516;2023-12-07T07:25:32;-1.80;99.90
8338;DHT22;4206;48.634;9.516;2023-12-07T07:28:04;-2.00;99.90
8338;DHT22;4206;48.634;9.516;2023-12-07T07:30:32;-2.00;99.90
8338;DHT22;4206;48.634;9.516;2023-12-07T07:32:59;-2.00;99.90
8338;DHT22;4206;48.634;9.516;2023-12-07T07:35:26;-2.00;99.90
8338;DHT22;4206;48.634;9.516;2023-12-07T07:37:54;-2.00;99.90
8338;DHT22;4206;48.634;9.516;2023-12-07T07:43:06;-1.90;99.90
8338;DHT22;4206;48.634;9.516;2023-12-07T07:45:33;-1.90;99.90
8338;DHT22;4206;48.634;9.516;2023-12-07T07:48:02;-1.90;99.90
8338;DHT22;4206;48.634;9.516;2023-12-07T07:53:14;-1.70;99.90
8338;DHT22;4206;48.634;9.516;2023-12-07T07:55:41;-1.60;99.90
8338;DHT22;4206;48.634;9.516;2023-12-07T07:58:09;-1.60;99.90
8338;DHT22;4206;48.634;9.516;2023-12-07T08:00:36;-1.70;99.90
8338;DHT22;4206;48.634;9.516;2023-12-07T08:03:03;-1.60;99.90
8338;DHT22;4206;48.634;9.516;2023-12-07T08:05:30;-1.50;99.90
8338;DHT22;4206;48.634;9.516;2023-12-07T08:07:57;-1.50;99.90
8338;DHT22;4206;48.634;9.516;2023-12-07T08:10:24;-1.40;99.90
8338;DHT22;4206;48.634;9.516;2023-12-07T08:12:51;-1.40;99.90
8338;DHT22;4206;48.634;9.516;2023-12-07T08:15:18;-1.40;99.90
8338;DHT22;4206;48.634;9.516;2023-12-07T08:17:45;-1.30;99.90
8338;DHT22;4206;48.634;9.516;2023-12-07T08:20:12;-1.30;99.90
8338;DHT22;4206;48.634;9.516;2023-12-07T08:22:39;-1.20;99.90
8338;DHT22;4206;48.634;9.516;2023-12-07T08:25:08;-1.10;99.90
8338;DHT22;4206;48.634;9.516;2023-12-07T08:27:39;-1.00;99.90
8338;DHT22;4206;48.634;9.516;2023-12-07T08:30:06;-0.90;99.90
8338;DHT22;4206;48.634;9.516;2023-12-07T08:32:36;-0.80;99.90
8338;DHT22;4206;48.634;9.516;2023-12-07T08:35:04;-0.70;99.90
8338;DHT22;4206;48.634;9.516;2023-12-07T08:37:32;-0.70;99.90
8338;DHT22;4206;48.634;9.516;2023-12-07T08:39:59;-0.60;99.90
8338;DHT22;4206;48.634;9.516;2023-12-07T08:45:18;-0.60;99.90
8338;DHT22;4206;48.634;9.516;2023-12-07T08:47:45;-0.60;99.90
8338;DHT22;4206;48.634;9.516;2023-12-07T08:50:12;-0.50;99.90
8338;DHT22;4206;48.634;9.516;2023-12-07T08:52:39;-0.50;99.90
8338;DHT22;4206;48.634;9.516;2023-12-07T08:55:15;-0.50;99.90
8338;DHT22;4206;48.634;9.516;2023-12-07T08:57:43;-0.40;99.90
8338;DHT22;4206;48.634;9.516;2023-12-07T09:00:10;-0.40;99.90
8338;DHT22;4206;48.634;9.516;2023-12-07T09:02:40;-0.30;99.90
8338;DHT22;4206;48.634;9.516;2023-12-07T09:05:14;-0.30;99.90
8338;DHT22;4206;48.634;9.516;2023-12-07T09:07:41;-0.20;99.90
8338;DHT22;4206;48.634;9.516;2023-12-07T09:10:09;-0.10;99.90
8338;DHT22;4206;48.634;9.516;2023-12-07T09:12:37;-0.10;99.90
8338;DHT22;4206;48.634;9.516;2023-12-07T09:15:06;0.00;99.90
8338;DHT22;4206;48.634;9.516;2023-12-07T09:17:35;0.10;99.90
8338;DHT22;4206;48.634;9.516;2023-12-07T09:20:05;0.10;99.90
8338;DHT22;4206;48.634;9.516;2023-12-07T09:22:34;0.20;99.90
8338;DHT22;4206;48.634;9.516;2023-12-07T09:25:04;0.40;99.90
8338;DHT22;4206;48.634;9.516;2023-12-07T09:27:32;0.50;99.90
8338;DHT22;4206;48.634;9.516;2023-12-07T09:30:00;0.60;99.90
8338;DHT22;4206;48.634;9.516;2023-12-07T09:32:27;0.70;99.90
8338;DHT22;4206;48.634;9.516;2023-12-07T09:35:04;0.70;99.90
8338;DHT22;4206;48.634;9.516;2023-12-07T09:37:31;0.80;99.90
8338;DHT22;4206;48.634;9.516;2023-12-07T09:39:58;1.30;99.90
8338;DHT22;4206;48.634;9.516;2023-12-07T09:42:26;2.20;99.90
8338;DHT22;4206;48.634;9.516;2023-12-07T09:45:02;3.70;99.90
8338;DHT22;4206;48.634;9.516;2023-12-07T09:47:31;5.40;99.90
8338;DHT22;4206;48.634;9.516;2023-12-07T09:50:05;7.20;99.90
8338;DHT22;4206;48.634;9.516;2023-12-07T09:55:03;9.90;99.90
8338;DHT22;4206;48.634;9.516;2023-12-07T09:57:30;10.70;99.90
8338;DHT22;4206;48.634;9.516;2023-12-07T09:59:59;11.00;99.90
8338;DHT22;4206;48.634;9.516;2023-12-07T10:02:28;11.30;99.90
8338;DHT22;4206;48.634;9.516;2023-12-07T10:05:12;11.10;99.90
8338;DHT22;4206;48.634;9.516;2023-12-07T10:07:41;11.30;99.90
8338;DHT22;4206;48.634;9.516;2023-12-07T10:10:09;11.60;99.90
8338;DHT22;4206;48.634;9.516;2023-12-07T10:15:15;9.60;99.90
8338;DHT22;4206;48.634;9.516;2023-12-07T10:20:28;8.80;99.90
8338;DHT22;4206;48.634;9.516;2023-12-07T10:23:12;8.80;99.90
8338;DHT22;4206;48.634;9.516;2023-12-07T10:25:41;8.60;99.90
8338;DHT22;4206;48.634;9.516;2023-12-07T10:28:10;8.40;99.90
8338;DHT22;4206;48.634;9.516;2023-12-07T10:30:40;8.50;99.90
8338;DHT22;4206;48.634;9.516;2023-12-07T10:33:10;8.70;99.90
8338;DHT22;4206;48.634;9.516;2023-12-07T10:35:40;9.20;99.90
8338;DHT22;4206;48.634;9.516;2023-12-07T10:38:09;9.10;99.90
8338;DHT22;4206;48.634;9.516;2023-12-07T10:40:36;9.80;99.90
8338;DHT22;4206;48.634;9.516;2023-12-07T10:43:06;10.10;99.90
8338;DHT22;4206;48.634;9.516;2023-12-07T10:45:34;10.30;99.90
8338;DHT22;4206;48.634;9.516;2023-12-07T10:48:05;9.90;99.90
8338;DHT22;4206;48.634;9.516;2023-12-07T10:50:35;9.30;99.90
8338;DHT22;4206;48.634;9.516;2023-12-07T10:53:09;9.40;99.90
8338;DHT22;4206;48.634;9.516;2023-12-07T10:55:42;8.90;99.90
8338;DHT22;4206;48.634;9.516;2023-12-07T10:58:13;9.40;99.90
8338;DHT22;4206;48.634;9.516;2023-12-07T11:00:42;9.40;99.90
8338;DHT22;4206;48.634;9.516;2023-12-07T11:03:16;9.60;99.90
8338;DHT22;4206;48.634;9.516;2023-12-07T11:05:45;9.00;99.90
8338;DHT22;4206;48.634;9.516;2023-12-07T11:13:32;8.10;99.90
8338;DHT22;4206;48.634;9.516;2023-12-07T11:16:00;8.10;99.90
8338;DHT22;4206;48.634;9.516;2023-12-07T11:18:28;8.00;99.90
8338;DHT22;4206;48.634;9.516;2023-12-07T11:20:56;7.70;99.90
8338;DHT22;4206;48.634;9.516;2023-12-07T11:23:23;8.30;99.90
8338;DHT22;4206;48.634;9.516;2023-12-07T11:25:52;8.50;99.90
8338;DHT22;4206;48.634;9.516;2023-12-07T11:28:35;8.70;99.90
8338;DHT22;4206;48.634;9.516;2023-12-07T11:31:02;9.00;99.90
8338;DHT22;4206;48.634;9.516;2023-12-07T11:33:30;9.50;99.90
8338;DHT22;4206;48.634;9.516;2023-12-07T11:36:07;9.80;99.90
8338;DHT22;4206;48.634;9.516;2023-12-07T11:38:36;10.30;99.90
8338;DHT22;4206;48.634;9.516;2023-12-07T11:43:50;10.90;99.90
8338;DHT22;4206;48.634;9.516;2023-12-07T11:46:20;11.30;99.90
8338;DHT22;4206;48.634;9.516;2023-12-07T11:48:47;11.80;99.90
8338;DHT22;4206;48.634;9.516;2023-12-07T11:51:16;12.20;99.90
8338;DHT22;4206;48.634;9.516;2023-12-07T11:53:43;12.60;99.90
8338;DHT22;4206;48.634;9.516;2023-12-07T11:56:11;13.00;99.90
8338;DHT22;4206;48.634;9.516;2023-12-07T11:58:39;13.30;98.50
8338;DHT22;4206;48.634;9.516;2023-12-07T12:01:07;13.20;97.10
8338;DHT22;4206;48.634;9.516;2023-12-07T12:03:35;12.70;97.00
8338;DHT22;4206;48.634;9.516;2023-12-07T12:06:04;12.70;97.50
8338;DHT22;4206;48.634;9.516;2023-12-07T12:08:32;13.00;97.60
8338;DHT22;4206;48.634;9.516;2023-12-07T12:10:59;13.20;98.30
8338;DHT22;4206;48.634;9.516;2023-12-07T12:13:28;13.50;98.10
8338;DHT22;4206;48.634;9.516;2023-12-07T12:15:57;14.00;98.60
8338;DHT22;4206;48.634;9.516;2023-12-07T12:18:29;14.60;95.80
8338;DHT22;4206;48.634;9.516;2023-12-07T12:20:57;14.70;94.30
8338;DHT22;4206;48.634;9.516;2023-12-07T12:23:26;14.30;93.40
8338;DHT22;4206;48.634;9.516;2023-12-07T12:25:54;14.00;93.20
8338;DHT22;4206;48.634;9.516;2023-12-07T12:28:21;13.40;93.10
8338;DHT22;4206;48.634;9.516;2023-12-07T12:30:50;13.20;93.60
8338;DHT22;4206;48.634;9.516;2023-12-07T12:33:18;12.80;93.40
8338;DHT22;4206;48.634;9.516;2023-12-07T12:35:45;12.60;94.40
8338;DHT22;4206;48.634;9.516;2023-12-07T12:38:13;12.80;94.00
8338;DHT22;4206;48.634;9.516;2023-12-07T12:40:54;13.10;94.40
8338;DHT22;4206;48.634;9.516;2023-12-07T12:43:21;13.50;94.80
8338;DHT22;4206;48.634;9.516;2023-12-07T12:45:49;13.50;93.30
8338;DHT22;4206;48.634;9.516;2023-12-07T12:48:32;13.40;93.10
8338;DHT22;4206;48.634;9.516;2023-12-07T12:51:08;13.50;93.70
8338;DHT22;4206;48.634;9.516;2023-12-07T12:53:35;13.90;92.60
8338;DHT22;4206;48.634;9.516;2023-12-07T12:56:03;14.30;92.60
8338;DHT22;4206;48.634;9.516;2023-12-07T12:58:30;14.20;92.20
8338;DHT22;4206;48.634;9.516;2023-12-07T13:00:57;14.30;92.30
8338;DHT22;4206;48.634;9.516;2023-12-07T13:03:24;13.70;90.60
8338;DHT22;4206;48.634;9.516;2023-12-07T13:05:52;13.30;91.10
8338;DHT22;4206;48.634;9.516;2023-12-07T13:08:20;13.10;90.20
8338;DHT22;4206;48.634;9.516;2023-12-07T13:10:48;13.10;90.80
8338;DHT22;4206;48.634;9.516;2023-12-07T13:13:15;12.50;90.20
8338;DHT22;4206;48.634;9.516;2023-12-07T13:15:42;12.00;91.80
8338;DHT22;4206;48.634;9.516;2023-12-07T13:18:09;11.40;92.50
8338;DHT22;4206;48.634;9.516;2023-12-07T13:20:36;10.40;92.00
8338;DHT22;4206;48.634;9.516;2023-12-07T13:23:06;9.30;93.20
8338;DHT22;4206;48.634;9.516;2023-12-07T13:25:33;8.50;94.10
8338;DHT22;4206;48.634;9.516;2023-12-07T13:28:00;7.80;94.80
8338;DHT22;4206;48.634;9.516;2023-12-07T13:30:27;7.30;94.40
8338;DHT22;4206;48.634;9.516;2023-12-07T13:32:56;6.90;95.40
8338;DHT22;4206;48.634;9.516;2023-12-07T13:35:23;6.40;96.50
8338;DHT22;4206;48.634;9.516;2023-12-07T13:37:50;6.20;96.90
8338;DHT22;4206;48.634;9.516;2023-12-07T13:40:17;6.00;97.30
8338;DHT22;4206;48.634;9.516;2023-12-07T13:42:44;5.80;97.70
8338;DHT22;4206;48.634;9.516;2023-12-07T13:45:11;5.60;97.80
8338;DHT22;4206;48.634;9.516;2023-12-07T13:47:38;5.50;97.50
8338;DHT22;4206;48.634;9.516;2023-12-07T13:50:06;5.40;98.00
8338;DHT22;4206;48.634;9.516;2023-12-07T13:52:33;5.30;99.70
8338;DHT22;4206;48.634;9.516;2023-12-07T13:58:08;5.20;98.30
8338;DHT22;4206;48.634;9.516;2023-12-07T14:00:38;5.10;98.70
8338;DHT22;4206;48.634;9.516;2023-12-07T14:03:05;5.10;99.00
8338;DHT22;4206;48.634;9.516;2023-12-07T14:05:32;5.00;99.20
8338;DHT22;4206;48.634;9.516;2023-12-07T14:07:59;4.90;99.30
8338;DHT22;4206;48.634;9.516;2023-12-07T14:10:26;5.00;98.90
8338;DHT22;4206;48.634;9.516;2023-12-07T14:12:56;4.90;99.40
8338;DHT22;4206;48.634;9.516;2023-12-07T14:15:23;5.00;99.30
8338;DHT22;4206;48.634;9.516;2023-12-07T14:18:08;5.00;99.00
8338;DHT22;4206;48.634;9.516;2023-12-07T14:20:36;4.90;99.30
8338;DHT22;4206;48.634;9.516;2023-12-07T14:23:22;4.80;99.70
8338;DHT22;4206;48.634;9.516;2023-12-07T14:25:49;4.80;99.90
8338;DHT22;4206;48.634;9.516;2023-12-07T14:28:18;4.80;99.80
8338;DHT22;4206;48.634;9.516;2023-12-07T14:30:45;4.70;99.80
8338;DHT22;4206;48.634;9.516;2023-12-07T14:33:12;4.70;99.90
8338;DHT22;4206;48.634;9.516;2023-12-07T14:35:39;4.50;99.90
8338;DHT22;4206;48.634;9.516;2023-12-07T14:38:06;4.50;99.90
8338;DHT22;4206;48.634;9.516;2023-12-07T14:43:33;4.20;99.90
8338;DHT22;4206;48.634;9.516;2023-12-07T14:46:00;4.00;99.90
8338;DHT22;4206;48.634;9.516;2023-12-07T14:48:28;4.00;99.90
8338;DHT22;4206;48.634;9.516;2023-12-07T14:50:55;3.80;99.90
8338;DHT22;4206;48.634;9.516;2023-12-07T14:53:22;3.70;99.90
8338;DHT22;4206;48.634;9.516;2023-12-07T14:55:52;3.60;99.90
8338;DHT22;4206;48.634;9.516;2023-12-07T14:58:19;3.40;99.90
8338;DHT22;4206;48.634;9.516;2023-12-07T15:00:46;3.20;99.90
8338;DHT22;4206;48.634;9.516;2023-12-07T15:03:13;3.10;99.90
8338;DHT22;4206;48.634;9.516;2023-12-07T15:05:40;3.00;99.90
8338;DHT22;4206;48.634;9.516;2023-12-07T15:08:08;2.90;99.90
8338;DHT22;4206;48.634;9.516;2023-12-07T15:10:35;2.80;99.90
8338;DHT22;4206;48.634;9.516;2023-12-07T15:13:03;2.80;99.90
8338;DHT22;4206;48.634;9.516;2023-12-07T15:15:30;2.60;99.90
8338;DHT22;4206;48.634;9.516;2023-12-07T15:17:57;2.50;99.90
8338;DHT22;4206;48.634;9.516;2023-12-07T15:20:26;2.40;99.90
8338;DHT22;4206;48.634;9.516;2023-12-07T15:22:53;2.20;99.90
8338;DHT22;4206;48.634;9.516;2023-12-07T15:25:20;2.10;99.90
8338;DHT22;4206;48.634;9.516;2023-12-07T15:27:48;2.10;99.90
8338;DHT22;4206;48.634;9.516;2023-12-07T15:30:17;2.00;99.90
8338;DHT22;4206;48.634;9.516;2023-12-07T15:32:44;2.00;99.90
8338;DHT22;4206;48.634;9.516;2023-12-07T15:35:11;2.00;99.90
8338;DHT22;4206;48.634;9.516;2023-12-07T15:37:39;1.90;99.90
8338;DHT22;4206;48.634;9.516;2023-12-07T15:40:06;1.90;99.90
8338;DHT22;4206;48.634;9.516;2023-12-07T15:42:38;2.00;99.90
8338;DHT22;4206;48.634;9.516;2023-12-07T15:45:06;2.00;99.90
8338;DHT22;4206;48.634;9.516;2023-12-07T15:47:34;2.10;99.90
8338;DHT22;4206;48.634;9.516;2023-12-07T15:50:02;2.10;99.90
8338;DHT22;4206;48.634;9.516;2023-12-07T15:52:29;2.10;99.90
8338;DHT22;4206;48.634;9.516;2023-12-07T15:54:55;2.10;99.90
8338;DHT22;4206;48.634;9.516;2023-12-07T15:57:22;2.10;99.90
8338;DHT22;4206;48.634;9.516;2023-12-07T15:59:50;2.10;99.90
8338;DHT22;4206;48.634;9.516;2023-12-07T16:02:17;2.10;99.90
8338;DHT22;4206;48.634;9.516;2023-12-07T16:04:45;2.10;99.90
8338;DHT22;4206;48.634;9.516;2023-12-07T16:07:14;1.90;99.90
8338;DHT22;4206;48.634;9.516;2023-12-07T16:09:41;1.70;99.90
8338;DHT22;4206;48.634;9.516;2023-12-07T16:12:10;1.60;99.90
8338;DHT22;4206;48.634;9.516;2023-12-07T16:14:38;1.50;99.90
8338;DHT22;4206;48.634;9.516;2023-12-07T16:17:06;1.30;99.90
8338;DHT22;4206;48.634;9.516;2023-12-07T16:19:34;1.20;99.90
8338;DHT22;4206;48.634;9.516;2023-12-07T16:22:03;1.10;99.90
8338;DHT22;4206;48.634;9.516;2023-12-07T16:24:31;1.20;99.90
8338;DHT22;4206;48.634;9.516;2023-12-07T16:26:58;1.20;99.90
8338;DHT22;4206;48.634;9.516;2023-12-07T16:29:29;1.10;99.90
8338;DHT22;4206;48.634;9.516;2023-12-07T16:31:56;1.00;99.90
8338;DHT22;4206;48.634;9.516;2023-12-07T16:34:23;1.00;99.90
8338;DHT22;4206;48.634;9.516;2023-12-07T16:36:50;1.10;99.90
8338;DHT22;4206;48.634;9.516;2023-12-07T16:39:17;1.10;99.90
8338;DHT22;4206;48.634;9.516;2023-12-07T16:41:44;1.20;99.90
8338;DHT22;4206;48.634;9.516;2023-12-07T16:44:23;1.30;99.90
8338;DHT22;4206;48.634;9.516;2023-12-07T16:46:50;1.50;99.90
8338;DHT22;4206;48.634;9.516;2023-12-07T16:49:17;1.70;99.90
8338;DHT22;4206;48.634;9.516;2023-12-07T16:51:45;1.70;99.90
8338;DHT22;4206;48.634;9.516;2023-12-07T16:54:12;1.70;99.90
8338;DHT22;4206;48.634;9.516;2023-12-07T16:56:39;1.70;99.90
8338;DHT22;4206;48.634;9.516;2023-12-07T16:59:06;1.60;99.90
8338;DHT22;4206;48.634;9.516;2023-12-07T17:01:34;1.60;99.90
8338;DHT22;4206;48.634;9.516;2023-12-07T17:04:01;1.50;99.90
8338;DHT22;4206;48.634;9.516;2023-12-07T17:06:28;1.40;99.90
8338;DHT22;4206;48.634;9.516;2023-12-07T17:08:55;1.40;99.90
8338;DHT22;4206;48.634;9.516;2023-12-07T17:11:38;1.30;99.90
8338;DHT22;4206;48.634;9.516;2023-12-07T17:14:06;1.40;99.90
8338;DHT22;4206;48.634;9.516;2023-12-07T17:16:33;1.40;99.90
8338;DHT22;4206;48.634;9.516;2023-12-07T17:19:00;1.50;99.90
8338;DHT22;4206;48.634;9.516;2023-12-07T17:21:28;1.60;99.90